createdAt,value
2019-03-25T00:03:49.711Z,99158.22
2019-03-25T00:09:04.838Z,99156.68
2019-03-25T00:14:03.298Z,99146.28
2019-03-25T00:19:09.259Z,99135.17
2019-03-25T00:24:15.084Z,99132.81
2019-03-25T00:29:22.038Z,99122.90
2019-03-25T00:34:28.039Z,99114.37
2019-03-25T00:39:33.833Z,99105.96
2019-03-25T00:44:39.568Z,99096.81
2019-03-25T00:49:45.422Z,99094.59
2019-03-25T00:54:52.189Z,99092.16
2019-03-25T00:59:57.981Z,99097.06
2019-03-25T01:05:03.867Z,99100.86
2019-03-25T01:10:10.008Z,99092.56
2019-03-25T01:15:15.752Z,99090.38
2019-03-25T01:20:21.706Z,99081.44
2019-03-25T01:25:27.546Z,99076.01
2019-03-25T01:30:33.350Z,99078.37
2019-03-25T01:35:39.094Z,99076.41
2019-03-25T01:40:44.877Z,99078.11
2019-03-25T01:45:50.611Z,99068.72
2019-03-25T01:50:56.477Z,99059.86
2019-03-25T01:56:02.425Z,99050.78
2019-03-25T02:01:08.265Z,99052.68
2019-03-25T02:06:14.044Z,99031.70
2019-03-25T02:11:22.210Z,99034.98
2019-03-25T02:16:31.033Z,99028.05
2019-03-25T02:21:36.927Z,99021.62
2019-03-25T02:26:42.850Z,99014.88
2019-03-25T02:31:48.654Z,99001.91
2019-03-25T02:36:54.429Z,98996.08
2019-03-25T02:42:01.189Z,98986.39
2019-03-25T02:47:06.919Z,98985.14
2019-03-25T02:52:12.854Z,98990.26
2019-03-25T02:57:18.970Z,98975.08
2019-03-25T03:02:24.843Z,98970.25
2019-03-25T03:07:30.578Z,98966.67
2019-03-25T03:12:36.589Z,98960.24
2019-03-25T03:17:42.324Z,98947.38
2019-03-25T03:22:48.116Z,98936.11
2019-03-25T03:27:53.883Z,98923.73
2019-03-25T03:32:59.701Z,98915.82
2019-03-25T03:38:05.510Z,98910.93
2019-03-25T03:43:11.259Z,98899.17
2019-03-25T03:48:17.486Z,98901.39
2019-03-25T03:53:23.256Z,98896.50
2019-03-25T03:58:31.152Z,98885.12
2019-03-25T04:03:37.980Z,98885.28
2019-03-25T04:08:44.157Z,98880.78
2019-03-25T04:13:50.076Z,98877.14
2019-03-25T04:18:55.876Z,98869.08
2019-03-25T04:24:01.669Z,98861.32
2019-03-25T04:29:07.409Z,98855.28
2019-03-25T04:34:13.148Z,98864.12
2019-03-25T04:39:18.903Z,98856.34
2019-03-25T04:44:24.997Z,98858.67
2019-03-25T04:49:30.825Z,98862.16
2019-03-25T04:54:36.690Z,98852.20
2019-03-25T04:59:42.651Z,98852.48
2019-03-25T05:04:48.395Z,98848.91
2019-03-25T05:09:54.154Z,98844.54
2019-03-25T05:15:00.980Z,98841.97
2019-03-25T05:20:07.352Z,98840.91
2019-03-25T05:25:13.334Z,98837.67
2019-03-25T05:30:19.453Z,98841.17
2019-03-25T05:35:25.376Z,98817.53
2019-03-25T05:40:31.254Z,98830.56
2019-03-25T05:46:25.085Z,98832.97
2019-03-25T05:51:30.830Z,98832.52
2019-03-25T05:56:36.699Z,98814.77
2019-03-25T06:01:44.230Z,98823.73
2019-03-25T06:06:52.169Z,98816.69
2019-03-25T06:11:57.728Z,98808.30
2019-03-25T06:17:03.649Z,98807.17
2019-03-25T06:22:09.384Z,98805.77
2019-03-25T06:27:15.390Z,98816.49
2019-03-25T06:32:21.244Z,98830.89
2019-03-25T06:37:27.102Z,98834.67
2019-03-25T06:42:32.948Z,98837.34
2019-03-25T06:47:38.770Z,98837.00
2019-03-25T06:52:44.978Z,98875.63
2019-03-25T06:57:51.080Z,98872.16
2019-03-25T07:02:56.948Z,98886.09
2019-03-25T07:08:03.006Z,98878.45
2019-03-25T07:13:09.182Z,98886.02
2019-03-25T07:18:15.036Z,98899.81
2019-03-25T07:23:21.081Z,98899.42
2019-03-25T07:28:26.930Z,98901.33
2019-03-25T07:33:32.855Z,98906.08
2019-03-25T07:38:39.543Z,98903.53
2019-03-25T07:43:45.385Z,98903.94
2019-03-25T07:48:51.251Z,98917.09
2019-03-25T07:53:57.096Z,98917.55
2019-03-25T07:59:03.033Z,98928.56
2019-03-25T08:04:09.769Z,98919.80
2019-03-25T08:09:15.580Z,98925.78
2019-03-25T08:14:21.415Z,98925.78
2019-03-25T08:19:27.268Z,98922.08
2019-03-25T08:24:33.403Z,98921.84
2019-03-25T08:29:39.330Z,98928.64
2019-03-25T08:34:45.601Z,98948.76
2019-03-25T08:39:51.603Z,98948.38
2019-03-25T08:44:57.421Z,98950.80
2019-03-25T08:50:03.639Z,98954.66
2019-03-25T08:55:10.006Z,98945.11
2019-03-25T09:00:17.054Z,98940.64
2019-03-25T09:05:23.887Z,98946.38
2019-03-25T09:10:29.723Z,98943.86
2019-03-25T09:15:35.527Z,98946.06
2019-03-25T09:20:42.841Z,98941.34
2019-03-25T09:25:48.639Z,98937.01
2019-03-25T09:31:20.875Z,98962.92
2019-03-25T09:36:27.041Z,98967.37
2019-03-25T09:41:33.204Z,98947.02
2019-03-25T09:46:39.066Z,98957.59
2019-03-25T09:51:45.027Z,98975.65
2019-03-25T09:56:53.750Z,98965.27
2019-03-25T10:01:59.614Z,98964.95
2019-03-25T10:07:05.465Z,98963.75
2019-03-25T10:12:11.501Z,98943.23
2019-03-25T10:17:17.263Z,98937.36
2019-03-25T10:22:23.136Z,98938.28
2019-03-25T10:27:28.962Z,98929.92
2019-03-25T10:32:34.800Z,98940.89
2019-03-25T10:37:41.393Z,98934.27
2019-03-25T10:42:47.489Z,98931.24
2019-03-25T10:47:53.278Z,98920.01
2019-03-25T10:52:59.153Z,98882.00
2019-03-25T10:58:05.298Z,98909.03
2019-03-25T11:03:11.080Z,98942.09
2019-03-25T11:08:17.244Z,98932.98
2019-03-25T11:13:23.410Z,98919.77
2019-03-25T11:18:29.258Z,98913.11
2019-03-25T11:23:35.169Z,98917.11
2019-03-25T11:28:41.104Z,98924.23
2019-03-25T11:33:47.126Z,98949.89
2019-03-25T11:38:53.999Z,98987.73
2019-03-25T11:43:59.838Z,98997.55
2019-03-25T11:49:05.749Z,98989.05
2019-03-25T11:54:11.979Z,98980.51
2019-03-25T11:59:18.783Z,98960.23
2019-03-25T12:04:24.871Z,98981.83
2019-03-25T12:09:30.665Z,99004.53
2019-03-25T12:14:36.536Z,98989.97
2019-03-25T12:19:42.339Z,98962.95
2019-03-25T12:24:48.200Z,98948.60
2019-03-25T12:29:53.959Z,98938.58
2019-03-25T12:34:59.826Z,98939.39
2019-03-25T12:40:07.970Z,98953.02
2019-03-25T12:45:15.105Z,98953.37
2019-03-25T12:50:21.000Z,98937.71
2019-03-25T12:55:27.110Z,98940.56
2019-03-25T13:00:51.217Z,98945.06
2019-03-25T13:05:57.018Z,98971.17
2019-03-25T13:11:03.132Z,98944.72
2019-03-25T13:16:09.171Z,98952.96
2019-03-25T13:21:15.558Z,98978.34
2019-03-25T13:26:21.515Z,99020.89
2019-03-25T13:31:27.540Z,99013.43
2019-03-25T13:36:33.541Z,98990.47
2019-03-25T13:41:40.474Z,98982.23
2019-03-25T13:46:46.341Z,98978.05
2019-03-25T13:51:52.308Z,98985.31
2019-03-25T13:56:58.971Z,98971.25
2019-03-25T14:02:05.290Z,98969.45
2019-03-25T14:07:11.141Z,98991.47
2019-03-25T14:12:17.032Z,99002.39
2019-03-25T14:17:22.914Z,99031.17
2019-03-25T14:22:28.865Z,99023.75
2019-03-25T14:27:34.687Z,99002.47
2019-03-25T14:32:40.606Z,99019.55
2019-03-25T14:37:46.502Z,98994.81
2019-03-25T14:42:52.806Z,99003.75
2019-03-25T14:47:58.600Z,98999.77
2019-03-25T14:53:04.457Z,99004.38
2019-03-25T14:58:10.705Z,99000.40
2019-03-25T15:03:16.522Z,99018.23
2019-03-25T15:08:22.631Z,99011.59
2019-03-25T15:13:28.493Z,99013.52
2019-03-25T15:18:35.010Z,99000.32
2019-03-25T15:23:40.827Z,99017.87
2019-03-25T15:28:46.604Z,99038.03
2019-03-25T15:33:54.006Z,99058.05
2019-03-25T15:38:59.912Z,99049.23
2019-03-25T15:44:05.817Z,99071.75
2019-03-25T15:49:11.574Z,99055.31
2019-03-25T15:54:17.441Z,99055.66
2019-03-25T15:59:23.403Z,99060.73
2019-03-25T16:04:30.015Z,99065.27
2019-03-25T16:09:35.880Z,99057.75
2019-03-25T16:14:41.667Z,99050.14
2019-03-25T16:19:47.604Z,99061.80
2019-03-25T16:24:53.644Z,99049.48
2019-03-25T16:30:00.558Z,99071.22
2019-03-25T16:35:06.755Z,99075.89
2019-03-25T16:40:12.612Z,99090.80
2019-03-25T16:45:18.537Z,99122.16
2019-03-25T16:50:24.439Z,99119.00
2019-03-25T16:55:30.520Z,99129.48
2019-03-25T17:00:36.356Z,99138.25
2019-03-25T17:05:42.565Z,99133.28
2019-03-25T17:10:48.516Z,99143.20
2019-03-25T17:15:54.645Z,99140.41
2019-03-25T17:21:01.470Z,99146.11
2019-03-25T17:26:07.204Z,99147.61
2019-03-25T17:31:20.949Z,99160.83
2019-03-25T17:36:23.720Z,99167.34
2019-03-25T17:41:31.265Z,99177.71
2019-03-25T17:46:37.080Z,99184.16
2019-03-25T17:51:43.127Z,99187.63
2019-03-25T17:56:49.061Z,99191.34
2019-03-25T18:01:54.944Z,99213.38
2019-03-25T18:07:00.831Z,99213.67
2019-03-25T18:12:06.775Z,99227.28
2019-03-25T18:17:12.548Z,99228.70
2019-03-25T18:22:18.316Z,99244.02
2019-03-25T18:27:24.385Z,99259.94
2019-03-25T18:32:30.483Z,99276.80
2019-03-25T18:37:36.275Z,99294.25
2019-03-25T18:42:42.453Z,99316.50
2019-03-25T18:47:48.507Z,99309.19
2019-03-25T18:52:56.731Z,99309.89
2019-03-25T18:58:01.887Z,99320.91
2019-03-25T19:03:07.851Z,99319.53
2019-03-25T19:08:13.961Z,99329.56
2019-03-25T19:13:19.902Z,99333.81
2019-03-25T19:18:26.030Z,99357.84
2019-03-25T19:23:31.816Z,99368.20
2019-03-25T19:28:37.825Z,99374.01
2019-03-25T19:33:44.009Z,99384.36
2019-03-25T19:38:50.985Z,99386.84
2019-03-25T19:43:57.081Z,99394.72
2019-03-25T19:49:03.062Z,99395.42
2019-03-25T19:54:09.053Z,99397.45
2019-03-25T19:59:15.191Z,99403.06
2019-03-25T20:04:21.411Z,99408.03
2019-03-25T20:09:27.927Z,99413.69
2019-03-25T20:14:33.960Z,99418.85
2019-03-25T20:19:41.994Z,99441.54
2019-03-25T20:24:47.797Z,99455.72
2019-03-25T20:29:54.447Z,99464.20
2019-03-25T20:35:00.672Z,99476.27
2019-03-25T20:40:07.677Z,99498.10
2019-03-25T20:45:14.250Z,99510.84
2019-03-25T20:50:20.629Z,99509.34
2019-03-25T20:55:26.434Z,99531.91
2019-03-25T21:01:12.596Z,99541.80
2019-03-25T21:06:19.760Z,99553.52
2019-03-25T21:11:25.682Z,99556.16
2019-03-25T21:16:32.263Z,99565.23
2019-03-25T21:21:39.030Z,99580.12
2019-03-25T21:26:45.635Z,99584.05
2019-03-25T21:31:53.091Z,99578.38
2019-03-25T21:37:00.556Z,99586.15
2019-03-25T21:42:06.900Z,99597.27
2019-03-25T21:47:13.246Z,99605.37
2019-03-25T21:52:19.152Z,99602.81
2019-03-25T21:57:25.151Z,99608.02
2019-03-25T22:02:30.923Z,99608.08
2019-03-25T22:07:37.166Z,99605.19
2019-03-25T22:12:43.006Z,99616.76
2019-03-25T22:17:49.074Z,99633.11
2019-03-25T22:22:55.053Z,99646.55
2019-03-25T22:28:01.069Z,99645.27
2019-03-25T22:33:07.515Z,99653.50
2019-03-25T22:38:14.699Z,99653.50
2019-03-25T22:43:20.772Z,99663.00
2019-03-25T22:48:27.358Z,99669.42
2019-03-25T22:53:33.364Z,99682.92
2019-03-25T22:58:41.716Z,99681.85
2019-03-25T23:03:47.751Z,99702.62
2019-03-25T23:08:54.426Z,99702.81
2019-03-25T23:14:00.621Z,99706.75
2019-03-25T23:19:06.772Z,99710.77
2019-03-25T23:24:12.850Z,99717.50
2019-03-25T23:29:18.824Z,99716.48
2019-03-25T23:34:25.154Z,99716.03
2019-03-25T23:39:31.284Z,99712.07
2019-03-25T23:44:37.809Z,99713.48
2019-03-25T23:49:43.653Z,99704.61
2019-03-25T23:54:49.462Z,99714.13
2019-03-25T23:59:55.418Z,99720.28
